Time;durP1;ratioP1;P1;durP2;ratioP2;P2;SDS_P1;SDS_P2;PMS_P1;PMS_P2;Temp;Humidity;BMP_temperature;BMP_pressure;BME280_temperature;BME280_humidity;BME280_pressure;Samples;Min_cycle;Max_cycle;Signal;HPM_P1;HPM_P2
2021/12/23 00:01:23;;;;;;;23.70;11.23;;;;;;;-5.88;100.00;101462.19;5017147;28;20041;-82
2021/12/23 00:03:50;;;;;;;32.57;13.73;;;;;;;-5.93;100.00;101450.75;5020775;28;20041;-82
2021/12/23 00:06:19;;;;;;;28.20;12.70;;;;;;;-5.97;100.00;101447.09;5022279;28;20102;-82
2021/12/23 00:08:46;;;;;;;25.93;13.43;;;;;;;-5.89;100.00;101440.69;5033279;28;20558;-82
2021/12/23 00:11:16;;;;;;;28.47;12.80;;;;;;;-5.90;100.00;101441.50;5014083;28;20064;-82
2021/12/23 00:13:51;;;;;;;30.97;13.43;;;;;;;-5.97;100.00;101434.25;5026274;28;20033;-82
2021/12/23 00:16:29;;;;;;;24.92;13.30;;;;;;;-5.95;100.00;101430.09;5014530;28;20040;-82
2021/12/23 00:19:05;;;;;;;25.87;12.33;;;;;;;-5.94;100.00;101425.84;5017231;28;20037;-82
2021/12/23 00:24:22;;;;;;;32.20;14.47;;;;;;;-5.90;100.00;101423.47;5035910;28;20495;-83
2021/12/23 00:26:49;;;;;;;36.63;17.17;;;;;;;-5.92;100.00;101413.94;5021748;28;20051;-82
2021/12/23 00:29:15;;;;;;;37.50;17.03;;;;;;;-5.95;100.00;101414.66;5022606;28;20443;-82
2021/12/23 00:31:42;;;;;;;42.13;21.67;;;;;;;-5.96;100.00;101420.63;5019438;28;20418;-81
2021/12/23 00:34:10;;;;;;;41.70;21.37;;;;;;;-5.97;100.00;101411.09;5049126;28;20095;-83
2021/12/23 00:36:41;;;;;;;41.73;20.90;;;;;;;-5.99;100.00;101413.59;5023204;28;20051;-83
2021/12/23 00:39:12;;;;;;;36.10;18.70;;;;;;;-5.92;100.00;101403.66;5019489;28;20045;-83
2021/12/23 00:41:45;;;;;;;30.40;14.45;;;;;;;-5.91;100.00;101401.16;5022745;28;20047;-83
2021/12/23 00:44:13;;;;;;;29.07;15.07;;;;;;;-5.90;100.00;101396.91;5037725;28;20052;-83
2021/12/23 00:46:40;;;;;;;30.63;14.87;;;;;;;-5.94;100.00;101394.97;5026064;28;20110;-83
2021/12/23 00:49:08;;;;;;;32.10;15.50;;;;;;;-6.00;100.00;101387.78;5031378;28;20044;-83
2021/12/23 00:51:36;;;;;;;33.43;15.30;;;;;;;-5.96;100.00;101392.31;5033926;28;20044;-83
2021/12/23 00:54:06;;;;;;;29.17;14.03;;;;;;;-5.96;100.00;101387.16;5032341;28;20150;-82
2021/12/23 00:56:36;;;;;;;31.13;13.93;;;;;;;-5.98;100.00;101381.91;5033526;28;20110;-83
2021/12/23 00:59:09;;;;;;;30.27;14.10;;;;;;;-5.99;100.00;101392.13;5033787;28;20737;-84
2021/12/23 01:01:36;;;;;;;27.50;14.17;;;;;;;-5.99;100.00;101385.28;5021106;28;20041;-83
2021/12/23 01:04:04;;;;;;;29.07;14.43;;;;;;;-5.92;100.00;101380.50;5033734;28;20062;-84
2021/12/23 01:06:30;;;;;;;27.43;13.93;;;;;;;-5.94;100.00;101380.41;5026888;28;20078;-84
2021/12/23 01:08:57;;;;;;;31.03;14.17;;;;;;;-5.91;100.00;101377.13;5039563;28;20174;-83
2021/12/23 01:11:24;;;;;;;30.10;13.97;;;;;;;-5.98;100.00;101368.16;5024248;28;20585;-83
2021/12/23 01:19:25;;;;;;;31.13;14.13;;;;;;;-6.00;100.00;101365.50;5035718;28;20044;-83
2021/12/23 01:21:52;;;;;;;29.77;13.53;;;;;;;-6.02;100.00;101364.53;5015386;28;20048;-83
2021/12/23 01:24:20;;;;;;;27.23;13.23;;;;;;;-5.91;100.00;101353.97;5018553;28;20135;-83
2021/12/23 01:26:46;;;;;;;29.30;13.53;;;;;;;-5.93;100.00;101345.28;5021500;28;20044;-83
2021/12/23 01:29:13;;;;;;;27.37;13.97;;;;;;;-5.96;100.00;101335.72;5036818;28;20074;-82
2021/12/23 01:31:42;;;;;;;30.10;14.00;;;;;;;-5.73;100.00;101339.53;5028917;28;20052;-83
2021/12/23 01:34:10;;;;;;;28.97;14.93;;;;;;;-5.78;100.00;101351.25;5018795;28;20037;-83
2021/12/23 01:36:37;;;;;;;24.83;12.57;;;;;;;-5.87;100.00;101353.31;5023895;28;20048;-82
2021/12/23 01:39:04;;;;;;;29.90;14.27;;;;;;;-5.85;100.00;101349.16;5017979;28;20044;-82
2021/12/23 01:41:31;;;;;;;34.20;14.97;;;;;;;-5.88;100.00;101343.84;5022720;28;20037;-83
2021/12/23 01:43:58;;;;;;;28.60;13.67;;;;;;;-5.89;100.00;101353.22;5026232;28;20048;-83
2021/12/23 01:46:25;;;;;;;34.40;15.27;;;;;;;-5.87;100.00;101356.78;5027518;28;20041;-83
2021/12/23 01:48:53;;;;;;;29.07;13.23;;;;;;;-5.88;100.00;101355.00;5027356;23;20667;-84
2021/12/23 01:51:20;;;;;;;29.23;15.20;;;;;;;-5.83;100.00;101355.25;4953446;28;20047;-83
2021/12/23 01:53:47;;;;;;;28.13;14.07;;;;;;;-5.84;100.00;101346.66;4932484;28;20039;-83
2021/12/23 01:56:14;;;;;;;27.27;14.60;;;;;;;-5.82;100.00;101350.19;4974174;28;20049;-82
2021/12/23 01:58:42;;;;;;;27.83;14.23;;;;;;;-5.79;100.00;101346.91;4962799;28;20069;-83
2021/12/23 02:01:10;;;;;;;27.83;14.53;;;;;;;-5.80;100.00;101333.16;4981618;28;20520;-83
2021/12/23 02:03:38;;;;;;;28.50;14.37;;;;;;;-5.74;100.00;101340.31;4968391;28;20088;-84
2021/12/23 02:06:04;;;;;;;29.57;15.00;;;;;;;-5.73;100.00;101335.25;4975405;28;20096;-83
2021/12/23 02:08:32;;;;;;;29.13;13.83;;;;;;;-5.59;100.00;101325.72;4980896;28;20057;-85
2021/12/23 02:11:01;;;;;;;29.80;14.60;;;;;;;-5.61;100.00;101311.91;4979412;28;20426;-83
2021/12/23 02:13:28;;;;;;;30.17;15.23;;;;;;;-5.59;100.00;101301.69;4979669;28;20046;-83
2021/12/23 02:15:57;;;;;;;28.30;14.67;;;;;;;-5.57;100.00;101290.66;4961414;28;20048;-84
2021/12/23 02:18:24;;;;;;;30.33;15.30;;;;;;;-5.43;100.00;101286.25;4980789;28;20096;-82
2021/12/23 02:20:53;;;;;;;33.67;15.27;;;;;;;-5.34;100.00;101273.00;4966435;28;20046;-83
2021/12/23 02:23:20;;;;;;;34.63;16.20;;;;;;;-5.31;100.00;101268.88;4978046;28;20042;-84
2021/12/23 02:25:48;;;;;;;31.63;15.37;;;;;;;-5.25;100.00;101266.63;4997613;28;20052;-83
2021/12/23 02:28:19;;;;;;;35.53;17.50;;;;;;;-5.15;100.00;101268.88;4975746;28;20050;-84
2021/12/23 02:30:51;;;;;;;34.70;16.43;;;;;;;-5.10;100.00;101267.44;4986378;28;20060;-85
2021/12/23 02:33:24;;;;;;;35.77;15.77;;;;;;;-5.08;100.00;101271.78;4987154;28;20049;-85
2021/12/23 02:35:53;;;;;;;36.30;16.57;;;;;;;-5.08;100.00;101275.25;4971165;28;20037;-83
2021/12/23 02:38:19;;;;;;;33.93;16.70;;;;;;;-5.09;100.00;101270.91;4978905;28;20053;-83
2021/12/23 02:40:46;;;;;;;32.93;15.90;;;;;;;-5.06;100.00;101271.03;4968439;28;20635;-85
2021/12/23 02:43:18;;;;;;;32.23;15.40;;;;;;;-5.05;100.00;101257.34;4967929;28;20454;-85
2021/12/23 02:45:48;;;;;;;28.70;15.40;;;;;;;-5.03;100.00;101257.47;4977108;28;20049;-83
2021/12/23 02:48:17;;;;;;;32.30;16.03;;;;;;;-4.99;100.00;101251.63;4983880;28;20046;-85
2021/12/23 02:50:47;;;;;;;29.87;14.63;;;;;;;-5.01;100.00;101246.41;4973778;28;20094;-84
2021/12/23 02:53:14;;;;;;;32.80;17.13;;;;;;;-4.98;100.00;101238.81;5000267;28;20487;-83
2021/12/23 02:55:41;;;;;;;32.57;15.73;;;;;;;-4.97;100.00;101229.41;4980517;28;20513;-83
2021/12/23 02:58:09;;;;;;;32.67;16.07;;;;;;;-4.91;100.00;101220.31;4967782;28;20057;-83
2021/12/23 03:00:38;;;;;;;30.90;15.43;;;;;;;-4.90;100.00;101214.34;4966243;28;20038;-84
2021/12/23 03:03:05;;;;;;;32.13;15.93;;;;;;;-4.94;100.00;101211.53;4964520;28;20045;-84
2021/12/23 03:05:31;;;;;;;30.33;14.53;;;;;;;-4.82;100.00;101209.56;4961444;28;20402;-83
2021/12/23 03:07:59;;;;;;;32.00;16.07;;;;;;;-4.84;100.00;101206.91;4975767;28;20042;-82
2021/12/23 03:10:26;;;;;;;31.43;15.10;;;;;;;-4.85;100.00;101196.53;4973456;28;20049;-85
2021/12/23 03:12:53;;;;;;;30.50;14.53;;;;;;;-4.83;100.00;101194.91;5007493;28;20045;-84
2021/12/23 03:15:20;;;;;;;29.67;15.03;;;;;;;-4.90;100.00;101190.25;4979984;28;20081;-84
2021/12/23 03:17:47;;;;;;;26.33;15.07;;;;;;;-4.91;100.00;101183.34;4974379;28;20049;-83
2021/12/23 03:20:14;;;;;;;31.73;15.47;;;;;;;-4.89;100.00;101184.28;4965526;28;20138;-82
2021/12/23 03:22:40;;;;;;;30.70;15.70;;;;;;;-4.90;100.00;101173.09;4971425;28;20053;-83
2021/12/23 03:25:07;;;;;;;29.87;15.20;;;;;;;-4.91;100.00;101171.34;4965231;28;20042;-83
2021/12/23 03:27:34;;;;;;;30.93;14.00;;;;;;;-4.87;100.00;101169.81;4964538;28;20383;-85
2021/12/23 03:30:01;;;;;;;30.30;15.40;;;;;;;-4.83;100.00;101166.56;4961763;28;20447;-82
2021/12/23 03:32:28;;;;;;;33.57;14.70;;;;;;;-4.80;100.00;101153.81;4975888;28;20069;-85
2021/12/23 03:34:54;;;;;;;27.60;14.47;;;;;;;-4.82;100.00;101147.72;4965063;28;20487;-82
2021/12/23 03:37:21;;;;;;;29.57;14.27;;;;;;;-4.83;100.00;101133.94;4958260;28;20354;-84
2021/12/23 03:39:51;;;;;;;24.53;14.10;;;;;;;-4.82;100.00;101147.72;4955844;28;20046;-85
2021/12/23 03:42:18;;;;;;;31.40;15.40;;;;;;;-4.82;100.00;101130.56;4966702;28;20053;-84
2021/12/23 03:44:44;;;;;;;26.43;14.73;;;;;;;-4.79;100.00;101127.28;4976890;28;20042;-84
2021/12/23 03:47:11;;;;;;;32.67;16.00;;;;;;;-4.65;100.00;101121.06;4983324;28;20057;-84
2021/12/23 03:49:38;;;;;;;31.87;16.47;;;;;;;-4.68;100.00;101114.88;4958663;28;20046;-82
2021/12/23 03:52:05;;;;;;;29.87;15.53;;;;;;;-4.68;100.00;101120.03;4970893;28;20053;-84
2021/12/23 03:54:31;;;;;;;31.10;14.83;;;;;;;-4.69;100.00;101123.44;4976521;28;20042;-85
2021/12/23 03:56:58;;;;;;;34.93;16.23;;;;;;;-4.67;100.00;101116.66;4963602;28;20049;-82
2021/12/23 03:59:24;;;;;;;28.17;15.13;;;;;;;-4.63;100.00;101113.41;4958556;28;20050;-82
2021/12/23 04:01:51;;;;;;;31.80;15.97;;;;;;;-4.62;100.00;101115.19;4959985;28;20148;-85
2021/12/23 04:04:18;;;;;;;34.83;15.63;;;;;;;-4.67;100.00;101091.75;4976906;28;20100;-85
2021/12/23 04:06:45;;;;;;;33.70;16.07;;;;;;;-4.62;100.00;101091.97;4965688;28;20065;-86
2021/12/23 04:09:12;;;;;;;30.47;14.83;;;;;;;-4.60;100.00;101080.94;4993770;28;20046;-84
2021/12/23 04:11:38;;;;;;;27.03;13.90;;;;;;;-4.59;100.00;101084.38;4996960;28;20042;-84
2021/12/23 04:14:05;;;;;;;31.40;15.60;;;;;;;-4.58;100.00;101079.28;4963405;28;20043;-85
2021/12/23 04:16:32;;;;;;;32.97;15.67;;;;;;;-4.56;100.00;101069.94;4975378;28;20057;-85
2021/12/23 04:18:59;;;;;;;28.80;15.53;;;;;;;-4.54;100.00;101058.00;4979925;28;20056;-85
2021/12/23 04:21:25;;;;;;;29.00;14.97;;;;;;;-4.48;100.00;101059.09;4956136;28;20049;-85
2021/12/23 04:23:52;;;;;;;32.90;15.67;;;;;;;-4.43;100.00;101065.34;4962485;28;20376;-85
2021/12/23 04:26:18;;;;;;;30.20;14.67;;;;;;;-4.44;100.00;101056.75;4973648;28;20702;-84
2021/12/23 04:28:46;;;;;;;30.33;15.43;;;;;;;-4.36;100.00;101057.97;4977335;28;20073;-86
2021/12/23 04:31:18;;;;;;;32.57;15.53;;;;;;;-4.36;100.00;101057.09;4975105;28;20065;-84
2021/12/23 04:33:47;;;;;;;32.90;15.73;;;;;;;-4.33;100.00;101052.06;4975069;28;20151;-85
2021/12/23 04:36:15;;;;;;;29.87;15.47;;;;;;;-4.37;100.00;101050.13;4989464;28;20114;-84
2021/12/23 04:38:43;;;;;;;31.90;15.43;;;;;;;-4.33;100.00;101059.81;4972822;28;20396;-84
2021/12/23 04:41:12;;;;;;;32.83;15.67;;;;;;;-4.36;100.00;101051.94;4997187;28;20049;-85
2021/12/23 04:43:40;;;;;;;29.40;14.53;;;;;;;-4.34;100.00;101046.03;4982540;28;20048;-85
2021/12/23 04:46:08;;;;;;;31.50;15.53;;;;;;;-4.34;100.00;101047.72;5004658;28;20059;-85
2021/12/23 04:48:45;;;;;;;32.97;17.10;;;;;;;-4.38;100.00;101032.91;4994445;28;20143;-88
2021/12/23 04:51:46;;;;;;;32.07;16.07;;;;;;;-4.37;100.00;101032.09;5018157;28;20082;-82
2021/12/23 04:54:13;;;;;;;30.03;15.30;;;;;;;-4.38;100.00;101041.53;4977731;28;20045;-83
2021/12/23 04:56:43;;;;;;;28.53;15.33;;;;;;;-4.35;100.00;101027.91;4992783;28;20041;-84
2021/12/23 04:59:15;;;;;;;;;;;;;;;-4.32;100.00;101016.00;4985903;28;20049;-83
2021/12/23 05:01:41;;;;;;;30.70;15.30;;;;;;;-4.27;100.00;101006.81;4968092;28;19926;-83
2021/12/23 05:04:08;;;;;;;33.30;16.20;;;;;;;-4.29;100.00;101005.84;4976138;28;20037;-82
2021/12/23 05:06:37;;;;;;;34.83;17.07;;;;;;;-4.27;100.00;101006.81;4986626;28;20069;-82
2021/12/23 05:09:04;;;;;;;31.43;16.70;;;;;;;-4.23;100.00;100999.19;5018491;28;20092;-85
2021/12/23 05:11:31;;;;;;;31.50;16.40;;;;;;;-4.20;100.00;100994.16;4979688;28;20049;-82
2021/12/23 05:13:58;;;;;;;33.07;16.40;;;;;;;-4.16;100.00;100990.91;4981153;28;20042;-84
2021/12/23 05:16:24;;;;;;;32.87;16.70;;;;;;;-4.16;100.00;100988.31;5018062;28;20144;-84
2021/12/23 05:18:51;;;;;;;31.03;16.03;;;;;;;-4.13;100.00;100998.78;5003364;28;20144;-83
2021/12/23 05:21:18;;;;;;;28.47;16.43;;;;;;;-4.13;100.00;100985.88;4983473;28;20034;-83
2021/12/23 05:23:44;;;;;;;56.50;29.00;;;;;;;-4.12;100.00;100983.38;5008544;28;20053;-85
2021/12/23 05:26:11;;;;;;;40.17;20.67;;;;;;;-4.04;100.00;100968.19;4977045;28;20042;-84
2021/12/23 05:28:38;;;;;;;36.90;19.30;;;;;;;-4.03;100.00;100968.28;4975357;28;21005;-83
2021/12/23 05:31:05;;;;;;;36.87;18.53;;;;;;;-4.03;100.00;100949.34;4999055;28;20467;-85
2021/12/23 05:33:32;;;;;;;32.27;17.80;;;;;;;-3.98;100.00;100956.44;5016121;28;20868;-83
2021/12/23 05:36:00;;;;;;;32.73;16.20;;;;;;;-3.91;100.00;100944.69;4981573;28;20595;-86
2021/12/23 05:38:26;;;;;;;33.67;16.83;;;;;;;-3.95;100.00;100937.66;5005118;28;20490;-84
2021/12/23 05:40:53;;;;;;;34.50;17.63;;;;;;;-3.92;100.00;100939.47;5001683;28;20045;-85
2021/12/23 05:43:20;;;;;;;29.80;17.40;;;;;;;-3.89;100.00;100940.47;4989597;28;20051;-85
2021/12/23 05:45:46;;;;;;;37.53;18.23;;;;;;;-3.90;100.00;100941.28;5013489;28;20092;-86
2021/12/23 05:48:13;;;;;;;37.83;18.23;;;;;;;-3.90;100.00;100940.41;4992376;28;20053;-85
2021/12/23 05:50:40;;;;;;;31.30;16.07;;;;;;;-3.85;100.00;100928.59;5000624;28;20046;-85
2021/12/23 05:53:07;;;;;;;32.90;17.73;;;;;;;-3.86;100.00;100932.00;4979396;28;20037;-85
2021/12/23 05:55:33;;;;;;;30.83;15.63;;;;;;;-3.83;100.00;100933.00;4994969;28;20049;-84
2021/12/23 05:58:00;;;;;;;31.93;17.03;;;;;;;-3.82;100.00;100921.84;4975283;28;20045;-84
2021/12/23 06:00:30;;;;;;;30.47;17.83;;;;;;;-3.80;100.00;100921.91;4977020;28;20056;-85
2021/12/23 06:02:57;;;;;;;34.13;17.40;;;;;;;-3.76;100.00;100922.09;5001503;28;20041;-84
2021/12/23 06:05:25;;;;;;;31.30;16.83;;;;;;;-3.77;100.00;100914.31;4991503;28;20037;-84
2021/12/23 06:07:52;;;;;;;35.83;18.37;;;;;;;-3.75;100.00;100910.97;4994859;28;20132;-84
2021/12/23 06:10:19;;;;;;;31.30;16.77;;;;;;;-3.69;100.00;100905.19;4978048;28;20498;-83
2021/12/23 06:12:47;;;;;;;34.33;17.27;;;;;;;-3.74;100.00;100888.59;4997022;28;20104;-84
2021/12/23 06:15:14;;;;;;;31.97;16.27;;;;;;;-3.72;100.00;100884.38;4985954;28;20483;-84
2021/12/23 06:17:40;;;;;;;35.43;16.57;;;;;;;-3.65;100.00;100888.97;4980692;28;20046;-85
2021/12/23 06:20:08;;;;;;;33.30;17.90;;;;;;;-3.64;100.00;100885.56;4977682;28;20071;-84
2021/12/23 06:22:36;;;;;;;38.23;17.47;;;;;;;-3.68;100.00;100881.13;4988753;28;20375;-83
2021/12/23 06:25:05;;;;;;;35.90;18.93;;;;;;;-3.70;100.00;100887.88;4997220;28;20403;-84
2021/12/23 06:27:32;;;;;;;36.93;16.97;;;;;;;-3.68;100.00;100873.38;4993073;28;20407;-83
2021/12/23 06:29:59;;;;;;;32.27;17.17;;;;;;;-3.67;100.00;100871.66;4999066;28;20047;-84
2021/12/23 06:32:25;;;;;;;34.90;19.03;;;;;;;-3.66;100.00;100879.47;4978424;28;20046;-83
2021/12/23 06:34:52;;;;;;;36.73;18.30;;;;;;;-3.63;100.00;100882.16;4975683;28;20038;-84
2021/12/23 06:37:19;;;;;;;37.07;18.43;;;;;;;-3.53;100.00;100879.16;5000322;28;20095;-85
2021/12/23 06:39:47;;;;;;;34.97;17.50;;;;;;;-3.60;100.00;100871.09;4998520;28;20092;-83
2021/12/23 06:42:14;;;;;;;35.63;19.50;;;;;;;-3.62;100.00;100871.00;4995753;28;20041;-83
2021/12/23 06:44:40;;;;;;;31.30;17.37;;;;;;;-3.59;100.00;100863.41;4981015;28;20045;-84
2021/12/23 06:47:07;;;;;;;35.97;19.57;;;;;;;-3.53;100.00;100858.50;4997843;28;20067;-85
2021/12/23 06:49:34;;;;;;;36.37;18.23;;;;;;;-3.42;100.00;100851.16;4998546;28;20037;-84
2021/12/23 06:52:00;;;;;;;31.57;18.10;;;;;;;-3.47;100.00;100857.81;4984649;28;20045;-83
2021/12/23 06:54:27;;;;;;;36.87;19.03;;;;;;;-3.50;100.00;100861.19;4978629;28;20046;-85
2021/12/23 06:56:54;;;;;;;40.53;18.60;;;;;;;-3.47;100.00;100853.53;5016162;28;20700;-83
2021/12/23 06:59:21;;;;;;;36.83;18.50;;;;;;;-3.48;100.00;100848.31;4997655;28;20041;-85
2021/12/23 07:01:49;;;;;;;38.77;19.63;;;;;;;-3.52;100.00;100847.34;5007778;28;20060;-83
2021/12/23 07:04:18;;;;;;;38.17;19.10;;;;;;;-3.46;100.00;100834.63;4996278;28;20056;-83
2021/12/23 07:06:56;;;;;;;32.30;18.50;;;;;;;-3.44;100.00;100829.56;4982389;28;20123;-84
2021/12/23 07:09:23;;;;;;;34.63;19.57;;;;;;;-3.42;100.00;100830.47;4984214;28;20041;-83
2021/12/23 07:11:50;;;;;;;41.73;22.37;;;;;;;-3.42;100.00;100828.78;4981240;28;20521;-85
2021/12/23 07:14:17;;;;;;;58.73;29.43;;;;;;;-3.40;100.00;100826.25;5003169;28;20121;-85
2021/12/23 07:16:43;;;;;;;46.67;21.20;;;;;;;-3.41;100.00;100830.53;4978940;28;20103;-83
2021/12/23 07:19:11;;;;;;;56.53;28.47;;;;;;;-3.43;100.00;100832.19;4993445;28;20053;-86
2021/12/23 07:21:37;;;;;;;53.13;30.10;;;;;;;-3.49;100.00;100826.78;5010086;28;20426;-82
2021/12/23 07:24:04;;;;;;;41.13;22.87;;;;;;;-3.46;100.00;100829.47;4983251;28;20053;-86
2021/12/23 07:26:32;;;;;;;41.20;20.27;;;;;;;-3.37;100.00;100830.66;4977206;28;20044;-83
2021/12/23 07:28:59;;;;;;;39.07;19.93;;;;;;;-3.42;100.00;100817.56;4994220;28;20049;-86
2021/12/23 07:31:25;;;;;;;37.33;18.47;;;;;;;-3.42;100.00;100800.38;5014107;28;20049;-85
2021/12/23 07:33:52;;;;;;;39.37;19.23;;;;;;;-3.43;100.00;100802.91;4989625;28;20049;-85
2021/12/23 07:36:22;;;;;;;35.50;18.17;;;;;;;-3.37;100.00;100789.31;5005062;28;20030;-86
2021/12/23 07:38:49;;;;;;;38.67;19.37;;;;;;;-3.36;100.00;100793.66;4989349;28;20063;-85
2021/12/23 07:41:16;;;;;;;34.27;18.50;;;;;;;-3.37;100.00;100778.97;5016729;28;20486;-86
2021/12/23 07:43:55;;;;;;;34.70;19.30;;;;;;;-3.33;100.00;100789.50;4997416;28;20053;-86
2021/12/23 07:46:22;;;;;;;40.03;20.67;;;;;;;-3.29;100.00;100795.66;4995602;28;20049;-86
2021/12/23 07:48:50;;;;;;;34.53;19.07;;;;;;;-3.20;100.00;100789.13;4992335;28;20045;-82
2021/12/23 07:51:17;;;;;;;38.53;19.67;;;;;;;-3.27;100.00;100788.84;4995471;28;20121;-84
2021/12/23 07:53:45;;;;;;;36.37;18.80;;;;;;;-3.29;100.00;100785.31;4979794;28;20103;-83
2021/12/23 07:56:11;;;;;;;35.17;18.10;;;;;;;-3.29;100.00;100785.31;5010709;28;20406;-83
2021/12/23 07:58:38;;;;;;;33.43;17.33;;;;;;;-3.23;100.00;100777.81;4998304;28;20046;-82
2021/12/23 08:01:17;;;;;;;34.47;18.40;;;;;;;-3.24;100.00;100771.75;5051313;22;20044;-93
2021/12/23 08:03:44;;;;;;;37.60;18.77;;;;;;;-3.23;100.00;100777.81;5000190;28;20030;-94
2021/12/23 08:06:11;;;;;;;32.83;18.67;;;;;;;-3.27;100.00;100774.25;5004383;28;20045;-94
2021/12/23 08:08:40;;;;;;;34.63;20.27;;;;;;;-3.13;100.00;100772.13;5019999;28;20033;-94
2021/12/23 08:11:07;;;;;;;35.53;19.03;;;;;;;-3.09;100.00;100770.56;5012633;28;20056;-94
2021/12/23 08:13:37;;;;;;;39.67;22.70;;;;;;;-3.11;100.00;100767.94;4987635;28;20081;-94
2021/12/23 08:16:08;;;;;;;34.67;19.33;;;;;;;-3.10;100.00;100761.94;5021437;28;20022;-95
2021/12/23 08:18:37;;;;;;;34.30;19.80;;;;;;;-3.08;100.00;100759.41;4989649;28;20128;-94
2021/12/23 08:21:04;;;;;;;41.07;24.87;;;;;;;-3.10;100.00;100755.88;4998369;28;20065;-95
2021/12/23 08:23:34;;;;;;;30.97;18.43;;;;;;;-3.07;100.00;100755.97;4994958;28;20054;-95
2021/12/23 08:26:10;;;;;;;35.80;20.10;;;;;;;-3.05;100.00;100742.28;5000488;28;20053;-95
2021/12/23 08:28:37;;;;;;;39.60;19.93;;;;;;;-3.03;100.00;100743.22;5003421;28;20036;-95
2021/12/23 08:31:04;;;;;;;35.17;18.37;;;;;;;-2.94;100.00;100734.94;4999658;28;20030;-95
2021/12/23 08:33:33;;;;;;;35.50;18.40;;;;;;;-2.88;100.00;100743.75;4993897;28;20030;-94
2021/12/23 08:36:00;;;;;;;35.23;18.43;;;;;;;-2.90;100.00;100736.78;4994788;28;20058;-94
2021/12/23 08:38:31;;;;;;;36.13;19.43;;;;;;;-2.87;100.00;100726.53;4987697;28;20025;-94
2021/12/23 08:40:58;;;;;;;37.80;18.10;;;;;;;-2.84;100.00;100732.72;4987170;28;20036;-94
2021/12/23 08:43:25;;;;;;;35.47;18.50;;;;;;;-2.86;100.00;100724.03;4986936;28;20030;-95
2021/12/23 08:45:55;;;;;;;38.40;18.70;;;;;;;-2.81;100.00;100720.69;4984147;28;20025;-94
2021/12/23 08:48:22;;;;;;;38.47;19.23;;;;;;;-2.85;100.00;100709.41;4991436;28;20034;-95
2021/12/23 08:50:48;;;;;;;34.50;18.97;;;;;;;-2.83;100.00;100708.59;4997181;28;20054;-95
2021/12/23 08:53:16;;;;;;;33.57;17.90;;;;;;;-2.84;100.00;100704.28;4999772;28;20046;-94
2021/12/23 08:56:00;;;;;;;35.47;18.77;;;;;;;-2.81;100.00;100700.91;4998503;28;20057;-93
2021/12/23 08:58:31;;;;;;;32.60;17.17;;;;;;;-2.79;100.00;100685.44;5001412;28;20026;-95
2021/12/23 09:00:58;;;;;;;37.10;19.10;;;;;;;-2.80;100.00;100681.97;5024347;28;20029;-94
2021/12/23 09:03:31;;;;;;;32.77;18.03;;;;;;;-2.79;100.00;100677.66;4991596;28;20034;-96
2021/12/23 09:06:02;;;;;;;32.37;17.13;;;;;;;-2.76;100.00;100675.22;5004353;28;20046;-93
2021/12/23 09:08:30;;;;;;;34.80;18.33;;;;;;;-2.72;100.00;100674.47;4990935;28;20044;-94
2021/12/23 09:10:58;;;;;;;34.83;18.03;;;;;;;-2.70;100.00;100662.47;5016583;28;20025;-94
2021/12/23 09:13:51;;;;;;;33.13;17.87;;;;;;;-2.60;100.00;100659.38;4983131;28;20030;-94
2021/12/23 09:16:22;;;;;;;31.87;17.83;;;;;;;-2.62;100.00;100661.88;5018038;28;20026;-93
2021/12/23 09:18:50;;;;;;;32.10;18.33;;;;;;;-2.54;100.00;100654.38;4983272;28;20026;-92
2021/12/23 09:21:25;;;;;;;31.23;17.87;;;;;;;-2.53;100.00;100638.03;5002410;28;20036;-94
2021/12/23 09:24:13;;;;;;;31.13;16.83;;;;;;;-2.53;100.00;100635.44;5006516;28;20052;-93
2021/12/23 09:26:57;;;;;;;30.87;17.13;;;;;;;-2.47;100.00;100621.81;5001384;28;20030;-95
2021/12/23 09:35:00;;;;;;;39.73;20.47;;;;;;;-2.27;100.00;100608.69;5029992;28;20098;-93
2021/12/23 09:37:34;;;;;;;32.23;16.93;;;;;;;-2.23;100.00;100595.81;5002589;28;20022;-94
2021/12/23 09:40:33;;;;;;;30.73;18.00;;;;;;;-2.15;100.00;100586.59;4987476;28;20184;-95
2021/12/23 09:43:04;;;;;;;32.20;16.60;;;;;;;-2.08;100.00;100585.94;4991257;28;20025;-94
2021/12/23 09:45:32;;;;;;;31.13;16.43;;;;;;;-2.06;100.00;100584.25;5005775;28;20102;-94
2021/12/23 09:48:42;;;;;;;35.50;18.63;;;;;;;-1.92;100.00;100557.06;5018229;28;20030;-94
2021/12/23 09:52:04;;;;;;;33.53;18.47;;;;;;;-1.94;100.00;100548.34;5000529;28;20037;-94
2021/12/23 09:55:03;;;;;;;39.13;21.10;;;;;;;-1.85;100.00;100546.06;5004390;28;20152;-94
2021/12/23 09:59:01;;;;;;;;;;;;;;;;;;;;;
2021/12/23 10:02:43;;;;;;;;;;;;;;;;;;;;;
2021/12/23 10:06:11;;;;;;;35.20;18.07;;;;;;;-1.74;100.00;100534.25;4874965;29;20029;-94
2021/12/23 10:30:15;;;;;;;24.97;15.43;;;;;;;-1.33;100.00;100479.19;4947318;28;20624;-83
2021/12/23 10:37:16;;;;;;;30.20;14.77;;;;;;;-1.25;100.00;100450.00;4956194;28;20049;-83
2021/12/23 10:39:46;;;;;;;29.37;16.20;;;;;;;-1.19;99.88;100437.16;4954627;28;20050;-80
2021/12/23 10:42:24;;;;;;;29.07;15.80;;;;;;;-1.07;99.60;100433.13;4952436;28;20095;-83
2021/12/23 10:44:56;;;;;;;30.00;16.40;;;;;;;-1.07;99.67;100414.97;4939810;28;20052;-81
2021/12/23 10:47:45;;;;;;;30.10;16.03;;;;;;;-1.02;99.36;100403.84;4969965;28;20436;-84
2021/12/23 10:50:23;;;;;;;33.30;18.93;;;;;;;-0.94;97.91;100399.72;4941747;28;20034;-84
2021/12/23 10:52:56;;;;;;;32.17;15.93;;;;;;;-0.91;98.58;100391.16;4948066;28;20082;-87
2021/12/23 10:58:02;;;;;;;31.77;17.93;;;;;;;-0.84;98.02;100369.69;4958535;28;20467;-87
2021/12/23 11:00:36;;;;;;;38.00;20.17;;;;;;;-0.79;94.25;100373.22;4962492;28;20042;-89
2021/12/23 11:03:19;;;;;;;;;;;;;;;-0.85;95.31;100371.38;4956454;28;20129;-85
2021/12/23 11:05:57;;;;;;;27.83;14.13;;;;;;;-0.86;96.47;100374.81;4958009;28;20512;-85
2021/12/23 11:37:10;;;;;;;23.27;13.30;;;;;;;-0.50;95.48;100313.28;4948372;28;20055;-88
2021/12/23 11:39:52;;;;;;;24.73;14.30;;;;;;;-0.33;93.41;100311.84;4928748;28;20047;-88
2021/12/23 11:43:26;;;;;;;23.63;13.63;;;;;;;-0.34;93.47;100297.09;4927415;28;20053;-86
2021/12/23 11:45:10;;;;;;;22.70;13.60;;;;;;;-0.24;93.37;100287.78;4965678;28;20498;-87
2021/12/23 11:47:39;;;;;;;27.93;14.80;;;;;;;-0.20;91.41;100289.56;4946954;28;20570;-87
2021/12/23 11:50:06;;;;;;;28.17;14.87;;;;;;;-0.32;88.22;100285.06;4950705;28;20051;-85
2021/12/23 11:52:33;;;;;;;22.97;12.70;;;;;;;-0.27;89.97;100283.41;4954497;28;20053;-85
2021/12/23 11:55:00;;;;;;;24.67;13.97;;;;;;;-0.22;90.67;100276.56;4940893;28;20046;-83
2021/12/23 11:57:33;;;;;;;26.97;14.73;;;;;;;-0.18;90.63;100280.94;4953418;28;20506;-85
2021/12/23 12:00:14;;;;;;;26.03;13.73;;;;;;;-0.12;90.49;100301.81;4951259;28;20054;-84
2021/12/23 12:02:59;;;;;;;23.80;13.70;;;;;;;-0.15;88.65;100348.53;4947243;28;20411;-83
2021/12/23 12:05:26;;;;;;;24.47;13.70;;;;;;;-0.25;90.12;100331.03;4986107;28;20042;-82
2021/12/23 12:08:10;;;;;;;26.47;14.37;;;;;;;-0.39;91.97;100319.53;4959449;28;20042;-82
2021/12/23 12:10:40;;;;;;;26.25;13.88;;;;;;;-0.41;91.93;100313.44;4965033;28;20070;-83
2021/12/23 12:13:10;;;;;;;24.20;14.43;;;;;;;-0.42;92.14;100314.25;4971393;28;20042;-85
2021/12/23 12:15:39;;;;;;;28.17;13.10;;;;;;;-0.44;93.53;100290.00;4943466;28;20400;-84
2021/12/23 12:18:10;;;;;;;21.30;12.90;;;;;;;-0.41;93.10;100285.78;4967824;28;20472;-83
2021/12/23 12:20:48;;;;;;;25.53;12.53;;;;;;;-0.48;92.85;100259.69;4946860;28;20076;-84
2021/12/23 12:23:28;;;;;;;33.70;16.00;;;;;;;-0.38;92.82;100258.97;4949682;28;20050;-83
2021/12/23 12:25:59;;;;;;;32.60;17.83;;;;;;;-0.44;91.92;100232.91;4968944;28;20042;-84
2021/12/23 12:28:29;;;;;;;29.13;15.93;;;;;;;-0.34;91.63;100238.31;4957927;28;20084;-84
2021/12/23 12:31:20;;;;;;;28.87;17.67;;;;;;;-0.35;91.73;100238.25;4956627;28;20137;-83
2021/12/23 12:34:07;;;;;;;25.50;14.40;;;;;;;-0.39;91.72;100226.09;4951071;28;20670;-83